sensor_id;sensor_type;location;lat;lon;timestamp;pressure;altitude;pressure_sealevel;temperature;humidity
39209;BME280;24929;51.982;4.664;2023-04-28T00:01:09;77077.56;;;-143.36;nan
39209;BME280;24929;51.982;4.664;2023-04-28T00:03:35;77077.56;;;-143.36;nan
39209;BME280;24929;51.982;4.664;2023-04-28T00:06:01;77083.59;;;-143.36;nan
39209;BME280;24929;51.982;4.664;2023-04-28T00:08:27;77087.59;;;-143.36;nan
39209;BME280;24929;51.982;4.664;2023-04-28T00:10:52;77087.59;;;-143.36;nan
39209;BME280;24929;51.982;4.664;2023-04-28T00:13:18;77095.63;;;-143.36;nan
39209;BME280;24929;51.982;4.664;2023-04-28T00:15:43;77069.53;;;-143.36;nan
39209;BME280;24929;51.982;4.664;2023-04-28T00:18:09;77079.56;;;-143.36;nan
39209;BME280;24929;51.982;4.664;2023-04-28T00:20:34;77087.59;;;-143.36;nan
39209;BME280;24929;51.982;4.664;2023-04-28T00:22:59;77077.56;;;-143.36;nan
39209;BME280;24929;51.982;4.664;2023-04-28T00:25:25;77127.75;;;-143.36;nan
39209;BME280;24929;51.982;4.664;2023-04-28T00:27:50;77085.59;;;-143.36;nan
39209;BME280;24929;51.982;4.664;2023-04-28T00:30:15;77073.56;;;-143.36;nan
39209;BME280;24929;51.982;4.664;2023-04-28T00:32:41;77055.50;;;-143.36;nan
39209;BME280;24929;51.982;4.664;2023-04-28T00:35:06;77051.47;;;-143.36;nan
39209;BME280;24929;51.982;4.664;2023-04-28T00:37:35;77041.44;;;-143.36;nan
39209;BME280;24929;51.982;4.664;2023-04-28T00:40:00;77069.53;;;-143.36;nan
39209;BME280;24929;51.982;4.664;2023-04-28T00:42:26;77047.47;;;-143.36;nan
39209;BME280;24929;51.982;4.664;2023-04-28T00:44:51;77029.41;;;-143.36;nan
39209;BME280;24929;51.982;4.664;2023-04-28T00:47:17;77057.50;;;-143.36;nan
39209;BME280;24929;51.982;4.664;2023-04-28T00:49:43;77051.47;;;-143.36;nan
39209;BME280;24929;51.982;4.664;2023-04-28T00:52:09;77021.38;;;-143.36;nan
39209;BME280;24929;51.982;4.664;2023-04-28T00:54:34;77025.38;;;-143.36;nan
39209;BME280;24929;51.982;4.664;2023-04-28T00:57:00;77001.31;;;-143.36;nan
39209;BME280;24929;51.982;4.664;2023-04-28T00:59:29;76999.28;;;-143.36;nan
39209;BME280;24929;51.982;4.664;2023-04-28T01:01:55;77035.41;;;-143.36;nan
39209;BME280;24929;51.982;4.664;2023-04-28T01:04:21;77005.31;;;-143.36;nan
39209;BME280;24929;51.982;4.664;2023-04-28T01:06:48;77027.38;;;-143.36;nan
39209;BME280;24929;51.982;4.664;2023-04-28T01:09:15;77025.38;;;-143.36;nan
39209;BME280;24929;51.982;4.664;2023-04-28T01:11:40;77047.47;;;-143.36;nan
39209;BME280;24929;51.982;4.664;2023-04-28T01:14:05;77025.38;;;-143.36;nan
39209;BME280;24929;51.982;4.664;2023-04-28T01:16:31;77009.31;;;-143.36;nan
39209;BME280;24929;51.982;4.664;2023-04-28T01:18:59;76995.28;;;-143.36;nan
39209;BME280;24929;51.982;4.664;2023-04-28T01:21:29;76993.28;;;-143.36;nan
39209;BME280;24929;51.982;4.664;2023-04-28T01:23:57;77027.38;;;-143.36;nan
39209;BME280;24929;51.982;4.664;2023-04-28T01:26:23;76997.28;;;-143.36;nan
39209;BME280;24929;51.982;4.664;2023-04-28T01:28:48;77001.31;;;-143.36;nan
39209;BME280;24929;51.982;4.664;2023-04-28T01:31:13;76997.28;;;-143.36;nan
39209;BME280;24929;51.982;4.664;2023-04-28T01:33:39;77001.31;;;-143.36;nan
39209;BME280;24929;51.982;4.664;2023-04-28T01:36:04;76985.25;;;-143.36;nan
39209;BME280;24929;51.982;4.664;2023-04-28T01:38:30;76967.19;;;-143.36;nan
39209;BME280;24929;51.982;4.664;2023-04-28T01:40:55;76987.25;;;-143.36;nan
39209;BME280;24929;51.982;4.664;2023-04-28T01:43:22;77015.34;;;-143.36;nan
39209;BME280;24929;51.982;4.664;2023-04-28T01:45:48;77003.31;;;-143.36;nan
39209;BME280;24929;51.982;4.664;2023-04-28T01:48:13;77001.31;;;-143.36;nan
39209;BME280;24929;51.982;4.664;2023-04-28T01:50:38;77013.34;;;-143.36;nan
39209;BME280;24929;51.982;4.664;2023-04-28T01:53:04;76983.25;;;-143.36;nan
39209;BME280;24929;51.982;4.664;2023-04-28T01:55:29;76975.22;;;-143.36;nan
39209;BME280;24929;51.982;4.664;2023-04-28T01:57:55;76975.22;;;-143.36;nan
39209;BME280;24929;51.982;4.664;2023-04-28T02:00:22;76981.22;;;-143.36;nan
39209;BME280;24929;51.982;4.664;2023-04-28T02:02:47;76969.19;;;-143.36;nan
39209;BME280;24929;51.982;4.664;2023-04-28T02:05:13;76957.16;;;-143.36;nan
39209;BME280;24929;51.982;4.664;2023-04-28T02:07:38;76957.16;;;-143.36;nan
39209;BME280;24929;51.982;4.664;2023-04-28T02:10:04;76971.19;;;-143.36;nan
39209;BME280;24929;51.982;4.664;2023-04-28T02:12:29;76963.16;;;-143.36;nan
39209;BME280;24929;51.982;4.664;2023-04-28T02:14:54;76961.16;;;-143.36;nan
39209;BME280;24929;51.982;4.664;2023-04-28T02:17:20;76979.22;;;-143.36;nan
39209;BME280;24929;51.982;4.664;2023-04-28T02:19:45;76963.16;;;-143.36;nan
39209;BME280;24929;51.982;4.664;2023-04-28T02:22:11;76933.06;;;-143.36;nan
39209;BME280;24929;51.982;4.664;2023-04-28T02:24:36;76939.09;;;-143.36;nan
39209;BME280;24929;51.982;4.664;2023-04-28T02:27:03;76904.97;;;-143.36;nan
39209;BME280;24929;51.982;4.664;2023-04-28T02:29:29;76961.16;;;-143.36;nan
39209;BME280;24929;51.982;4.664;2023-04-28T02:31:55;76917.00;;;-143.36;nan
39209;BME280;24929;51.982;4.664;2023-04-28T02:34:20;76915.00;;;-143.36;nan
39209;BME280;24929;51.982;4.664;2023-04-28T02:36:45;76939.09;;;-143.36;nan
39209;BME280;24929;51.982;4.664;2023-04-28T02:39:12;76935.06;;;-143.36;nan
39209;BME280;24929;51.982;4.664;2023-04-28T02:41:37;76951.13;;;-143.36;nan
39209;BME280;24929;51.982;4.664;2023-04-28T02:44:03;76953.13;;;-143.36;nan
39209;BME280;24929;51.982;4.664;2023-04-28T02:46:28;76943.09;;;-143.36;nan
39209;BME280;24929;51.982;4.664;2023-04-28T02:48:54;76919.00;;;-143.36;nan
39209;BME280;24929;51.982;4.664;2023-04-28T02:51:19;76925.03;;;-143.36;nan
39209;BME280;24929;51.982;4.664;2023-04-28T02:53:44;76983.25;;;-143.36;nan
39209;BME280;24929;51.982;4.664;2023-04-28T02:56:10;76971.19;;;-143.36;nan
39209;BME280;24929;51.982;4.664;2023-04-28T02:58:36;76985.25;;;-143.36;nan
39209;BME280;24929;51.982;4.664;2023-04-28T03:01:01;76983.25;;;-143.36;nan
39209;BME280;24929;51.982;4.664;2023-04-28T03:03:26;76999.28;;;-143.36;nan
39209;BME280;24929;51.982;4.664;2023-04-28T03:05:52;76975.22;;;-143.36;nan
39209;BME280;24929;51.982;4.664;2023-04-28T03:08:17;76973.19;;;-143.36;nan
39209;BME280;24929;51.982;4.664;2023-04-28T03:10:44;76949.13;;;-143.36;nan
39209;BME280;24929;51.982;4.664;2023-04-28T03:13:10;77011.34;;;-143.36;nan
39209;BME280;24929;51.982;4.664;2023-04-28T03:15:35;77017.34;;;-143.36;nan
39209;BME280;24929;51.982;4.664;2023-04-28T03:18:01;77013.34;;;-143.36;nan
39209;BME280;24929;51.982;4.664;2023-04-28T03:20:26;76963.16;;;-143.36;nan
39209;BME280;24929;51.982;4.664;2023-04-28T03:22:52;76961.16;;;-143.36;nan
39209;BME280;24929;51.982;4.664;2023-04-28T03:25:17;76957.16;;;-143.36;nan
39209;BME280;24929;51.982;4.664;2023-04-28T03:27:42;76971.19;;;-143.36;nan
39209;BME280;24929;51.982;4.664;2023-04-28T03:30:08;76975.22;;;-143.36;nan
39209;BME280;24929;51.982;4.664;2023-04-28T03:32:34;76929.06;;;-143.36;nan
39209;BME280;24929;51.982;4.664;2023-04-28T03:35:00;76943.09;;;-143.36;nan
39209;BME280;24929;51.982;4.664;2023-04-28T03:37:25;76933.06;;;-143.36;nan
39209;BME280;24929;51.982;4.664;2023-04-28T03:39:51;76949.13;;;-143.36;nan
39209;BME280;24929;51.982;4.664;2023-04-28T03:42:16;76927.03;;;-143.36;nan
39209;BME280;24929;51.982;4.664;2023-04-28T03:44:41;76898.94;;;-143.36;nan
39209;BME280;24929;51.982;4.664;2023-04-28T03:47:07;76919.00;;;-143.36;nan
39209;BME280;24929;51.982;4.664;2023-04-28T03:49:32;76919.00;;;-143.36;nan
39209;BME280;24929;51.982;4.664;2023-04-28T03:51:57;76943.09;;;-143.36;nan
39209;BME280;24929;51.982;4.664;2023-04-28T03:54:23;76943.09;;;-143.36;nan
39209;BME280;24929;51.982;4.664;2023-04-28T03:56:48;76945.09;;;-143.36;nan
39209;BME280;24929;51.982;4.664;2023-04-28T03:59:13;76904.97;;;-143.36;nan
39209;BME280;24929;51.982;4.664;2023-04-28T04:01:39;76900.97;;;-143.36;nan
39209;BME280;24929;51.982;4.664;2023-04-28T04:04:04;76925.03;;;-143.36;nan
39209;BME280;24929;51.982;4.664;2023-04-28T04:06:30;76882.88;;;-143.36;nan
39209;BME280;24929;51.982;4.664;2023-04-28T04:08:56;76894.94;;;-143.36;nan
39209;BME280;24929;51.982;4.664;2023-04-28T04:11:21;76898.94;;;-143.36;nan
39209;BME280;24929;51.982;4.664;2023-04-28T04:13:47;76904.97;;;-143.36;nan
39209;BME280;24929;51.982;4.664;2023-04-28T04:16:12;76902.97;;;-143.36;nan
39209;BME280;24929;51.982;4.664;2023-04-28T04:18:40;76917.00;;;-143.36;nan
39209;BME280;24929;51.982;4.664;2023-04-28T04:21:05;76902.97;;;-143.36;nan
39209;BME280;24929;51.982;4.664;2023-04-28T04:23:30;76870.84;;;-143.36;nan
39209;BME280;24929;51.982;4.664;2023-04-28T04:25:56;76844.75;;;-143.36;nan
39209;BME280;24929;51.982;4.664;2023-04-28T04:28:21;76906.97;;;-143.36;nan
39209;BME280;24929;51.982;4.664;2023-04-28T04:30:46;76896.94;;;-143.36;nan
39209;BME280;24929;51.982;4.664;2023-04-28T04:33:12;76880.88;;;-143.36;nan
39209;BME280;24929;51.982;4.664;2023-04-28T04:35:37;76957.16;;;-143.36;nan
39209;BME280;24929;51.982;4.664;2023-04-28T04:38:03;76923.03;;;-143.36;nan
39209;BME280;24929;51.982;4.664;2023-04-28T04:40:28;76913.00;;;-143.36;nan
39209;BME280;24929;51.982;4.664;2023-04-28T04:42:54;76911.00;;;-143.36;nan
39209;BME280;24929;51.982;4.664;2023-04-28T04:45:19;76919.00;;;-143.36;nan
39209;BME280;24929;51.982;4.664;2023-04-28T04:47:45;76862.81;;;-143.36;nan
39209;BME280;24929;51.982;4.664;2023-04-28T04:50:11;76852.78;;;-143.36;nan
39209;BME280;24929;51.982;4.664;2023-04-28T04:52:37;76921.03;;;-143.36;nan
39209;BME280;24929;51.982;4.664;2023-04-28T04:55:04;76860.81;;;-143.36;nan
39209;BME280;24929;51.982;4.664;2023-04-28T04:57:29;76917.00;;;-143.36;nan
39209;BME280;24929;51.982;4.664;2023-04-28T04:59:55;76935.06;;;-143.36;nan
39209;BME280;24929;51.982;4.664;2023-04-28T05:02:20;76947.13;;;-143.36;nan
39209;BME280;24929;51.982;4.664;2023-04-28T05:04:45;76929.06;;;-143.36;nan
39209;BME280;24929;51.982;4.664;2023-04-28T05:07:11;76941.09;;;-143.36;nan
39209;BME280;24929;51.982;4.664;2023-04-28T05:09:36;76973.19;;;-143.36;nan
39209;BME280;24929;51.982;4.664;2023-04-28T05:12:02;76987.25;;;-143.36;nan
39209;BME280;24929;51.982;4.664;2023-04-28T05:14:27;76981.22;;;-143.36;nan
39209;BME280;24929;51.982;4.664;2023-04-28T05:16:53;76981.22;;;-143.36;nan
39209;BME280;24929;51.982;4.664;2023-04-28T05:19:18;76953.13;;;-143.36;nan
39209;BME280;24929;51.982;4.664;2023-04-28T05:21:43;76965.19;;;-143.36;nan
39209;BME280;24929;51.982;4.664;2023-04-28T05:24:11;76951.13;;;-143.36;nan
39209;BME280;24929;51.982;4.664;2023-04-28T05:26:36;76929.06;;;-143.36;nan
39209;BME280;24929;51.982;4.664;2023-04-28T05:29:02;76985.25;;;-143.36;nan
39209;BME280;24929;51.982;4.664;2023-04-28T05:31:28;76969.19;;;-143.36;nan
39209;BME280;24929;51.982;4.664;2023-04-28T05:33:53;76959.16;;;-143.36;nan
39209;BME280;24929;51.982;4.664;2023-04-28T05:36:18;76941.09;;;-143.36;nan
39209;BME280;24929;51.982;4.664;2023-04-28T05:38:43;76931.06;;;-143.36;nan
39209;BME280;24929;51.982;4.664;2023-04-28T05:41:09;76933.06;;;-143.36;nan
39209;BME280;24929;51.982;4.664;2023-04-28T05:43:34;76947.13;;;-143.36;nan
39209;BME280;24929;51.982;4.664;2023-04-28T05:46:00;76959.16;;;-143.36;nan
39209;BME280;24929;51.982;4.664;2023-04-28T05:48:25;76973.19;;;-143.36;nan
39209;BME280;24929;51.982;4.664;2023-04-28T05:50:51;76975.22;;;-143.36;nan
39209;BME280;24929;51.982;4.664;2023-04-28T05:53:16;76957.16;;;-143.36;nan
39209;BME280;24929;51.982;4.664;2023-04-28T05:55:41;76927.03;;;-143.36;nan
39209;BME280;24929;51.982;4.664;2023-04-28T05:58:07;76908.97;;;-143.36;nan
39209;BME280;24929;51.982;4.664;2023-04-28T06:00:33;76925.03;;;-143.36;nan
39209;BME280;24929;51.982;4.664;2023-04-28T06:02:58;76957.16;;;-143.36;nan
39209;BME280;24929;51.982;4.664;2023-04-28T06:05:24;76951.13;;;-143.36;nan
39209;BME280;24929;51.982;4.664;2023-04-28T06:07:49;76933.06;;;-143.36;nan
39209;BME280;24929;51.982;4.664;2023-04-28T06:10:14;76961.16;;;-143.36;nan
39209;BME280;24929;51.982;4.664;2023-04-28T06:12:40;76923.03;;;-143.36;nan
39209;BME280;24929;51.982;4.664;2023-04-28T06:15:05;76913.00;;;-143.36;nan
39209;BME280;24929;51.982;4.664;2023-04-28T06:17:31;76923.03;;;-143.36;nan
39209;BME280;24929;51.982;4.664;2023-04-28T06:19:57;76957.16;;;-143.36;nan
39209;BME280;24929;51.982;4.664;2023-04-28T06:22:24;76929.06;;;-143.36;nan
39209;BME280;24929;51.982;4.664;2023-04-28T06:24:49;76925.03;;;-143.36;nan
39209;BME280;24929;51.982;4.664;2023-04-28T06:27:15;76902.97;;;-143.36;nan
39209;BME280;24929;51.982;4.664;2023-04-28T06:29:40;76888.91;;;-143.36;nan
39209;BME280;24929;51.982;4.664;2023-04-28T06:32:05;76882.88;;;-143.36;nan
39209;BME280;24929;51.982;4.664;2023-04-28T06:34:31;76856.81;;;-143.36;nan
39209;BME280;24929;51.982;4.664;2023-04-28T06:37:00;76800.59;;;-143.36;nan
39209;BME280;24929;51.982;4.664;2023-04-28T06:39:26;76832.72;;;-143.36;nan
39209;BME280;24929;51.982;4.664;2023-04-28T06:41:51;76830.72;;;-143.36;nan
39209;BME280;24929;51.982;4.664;2023-04-28T06:44:17;76858.81;;;-143.36;nan
39209;BME280;24929;51.982;4.664;2023-04-28T06:46:42;76784.56;;;-143.36;nan
39209;BME280;24929;51.982;4.664;2023-04-28T06:49:07;76756.47;;;-143.36;nan
39209;BME280;24929;51.982;4.664;2023-04-28T06:51:33;76752.44;;;-143.36;nan
39209;BME280;24929;51.982;4.664;2023-04-28T06:53:58;76774.53;;;-143.36;nan
39209;BME280;24929;51.982;4.664;2023-04-28T06:56:24;76760.47;;;-143.36;nan
39209;BME280;24929;51.982;4.664;2023-04-28T06:58:50;76772.50;;;-143.36;nan
39209;BME280;24929;51.982;4.664;2023-04-28T07:01:16;76766.50;;;-143.36;nan
39209;BME280;24929;51.982;4.664;2023-04-28T07:03:41;76756.47;;;-143.36;nan
39209;BME280;24929;51.982;4.664;2023-04-28T07:06:06;76762.47;;;-143.36;nan
39209;BME280;24929;51.982;4.664;2023-04-28T07:08:33;76698.25;;;-143.36;nan
39209;BME280;24929;51.982;4.664;2023-04-28T07:10:59;76710.31;;;-143.36;nan
39209;BME280;24929;51.982;4.664;2023-04-28T07:13:28;76712.31;;;-143.36;nan
39209;BME280;24929;51.982;4.664;2023-04-28T07:15:53;76734.38;;;-143.36;nan
39209;BME280;24929;51.982;4.664;2023-04-28T07:18:19;76728.38;;;-143.36;nan
39209;BME280;24929;51.982;4.664;2023-04-28T07:20:44;76684.22;;;-143.36;nan
39209;BME280;24929;51.982;4.664;2023-04-28T07:23:09;76692.25;;;-143.36;nan
39209;BME280;24929;51.982;4.664;2023-04-28T07:25:35;76734.38;;;-143.36;nan
39209;BME280;24929;51.982;4.664;2023-04-28T07:28:02;76712.31;;;-143.36;nan
39209;BME280;24929;51.982;4.664;2023-04-28T07:30:28;76734.38;;;-143.36;nan
39209;BME280;24929;51.982;4.664;2023-04-28T07:32:53;76736.38;;;-143.36;nan
39209;BME280;24929;51.982;4.664;2023-04-28T07:35:19;76724.34;;;-143.36;nan
39209;BME280;24929;51.982;4.664;2023-04-28T07:37:44;76702.28;;;-143.36;nan
39209;BME280;24929;51.982;4.664;2023-04-28T07:40:10;76670.16;;;-143.36;nan
39209;BME280;24929;51.982;4.664;2023-04-28T07:42:35;76642.06;;;-143.36;nan
39209;BME280;24929;51.982;4.664;2023-04-28T07:45:01;76636.06;;;-143.36;nan
39209;BME280;24929;51.982;4.664;2023-04-28T07:47:26;76593.91;;;-143.36;nan
39209;BME280;24929;51.982;4.664;2023-04-28T07:49:53;76591.91;;;-143.36;nan
39209;BME280;24929;51.982;4.664;2023-04-28T07:52:18;76575.84;;;-143.36;nan
39209;BME280;24929;51.982;4.664;2023-04-28T07:54:44;76632.03;;;-143.36;nan
39209;BME280;24929;51.982;4.664;2023-04-28T07:57:09;76603.94;;;-143.36;nan
39209;BME280;24929;51.982;4.664;2023-04-28T07:59:35;76618.00;;;-143.36;nan
39209;BME280;24929;51.982;4.664;2023-04-28T08:02:00;76585.88;;;-143.36;nan
39209;BME280;24929;51.982;4.664;2023-04-28T08:04:26;76537.72;;;-143.36;nan
39209;BME280;24929;51.982;4.664;2023-04-28T08:06:52;76501.59;;;-143.36;nan
39209;BME280;24929;51.982;4.664;2023-04-28T08:09:18;76531.69;;;-143.36;nan
39209;BME280;24929;51.982;4.664;2023-04-28T08:11:43;76551.75;;;-143.36;nan
39209;BME280;24929;51.982;4.664;2023-04-28T08:14:08;76559.78;;;-143.36;nan
39209;BME280;24929;51.982;4.664;2023-04-28T08:16:34;76545.75;;;-143.36;nan
39209;BME280;24929;51.982;4.664;2023-04-28T08:19:02;76545.75;;;-143.36;nan
39209;BME280;24929;51.982;4.664;2023-04-28T08:21:28;76541.72;;;-143.36;nan
39209;BME280;24929;51.982;4.664;2023-04-28T08:23:53;76533.72;;;-143.36;nan
39209;BME280;24929;51.982;4.664;2023-04-28T08:26:18;76535.72;;;-143.36;nan
39209;BME280;24929;51.982;4.664;2023-04-28T08:28:44;76525.69;;;-143.36;nan
39209;BME280;24929;51.982;4.664;2023-04-28T08:31:09;76507.63;;;-143.36;nan
39209;BME280;24929;51.982;4.664;2023-04-28T08:33:34;76509.63;;;-143.36;nan
39209;BME280;24929;51.982;4.664;2023-04-28T08:36:00;76487.56;;;-143.36;nan
39209;BME280;24929;51.982;4.664;2023-04-28T08:38:25;76459.47;;;-143.36;nan
39209;BME280;24929;51.982;4.664;2023-04-28T08:40:51;76461.47;;;-143.36;nan
39209;BME280;24929;51.982;4.664;2023-04-28T08:43:16;76449.44;;;-143.36;nan
39209;BME280;24929;51.982;4.664;2023-04-28T08:45:43;76421.34;;;-143.36;nan
39209;BME280;24929;51.982;4.664;2023-04-28T08:48:19;76449.44;;;-143.36;nan
39209;BME280;24929;51.982;4.664;2023-04-28T08:50:49;76405.28;;;-143.36;nan
39209;BME280;24929;51.982;4.664;2023-04-28T08:53:20;76375.19;;;-143.36;nan
39209;BME280;24929;51.982;4.664;2023-04-28T08:55:46;76435.38;;;-143.36;nan
39209;BME280;24929;51.982;4.664;2023-04-28T08:58:13;76403.28;;;-143.36;nan
39209;BME280;24929;51.982;4.664;2023-04-28T09:00:38;76379.19;;;-143.36;nan
39209;BME280;24929;51.982;4.664;2023-04-28T09:03:04;76323.00;;;-143.36;nan
39209;BME280;24929;51.982;4.664;2023-04-28T09:05:33;76296.91;;;-143.36;nan
39209;BME280;24929;51.982;4.664;2023-04-28T09:08:01;76254.78;;;-143.36;nan
39209;BME280;24929;51.982;4.664;2023-04-28T09:10:26;76278.84;;;-143.36;nan
39209;BME280;24929;51.982;4.664;2023-04-28T09:12:54;76250.78;;;-143.36;nan
39209;BME280;24929;51.982;4.664;2023-04-28T09:17:56;76266.81;;;-143.36;nan
39209;BME280;24929;51.982;4.664;2023-04-28T09:20:23;76206.63;;;-143.36;nan
39209;BME280;24929;51.982;4.664;2023-04-28T09:22:49;76210.63;;;-143.36;nan
39209;BME280;24929;51.982;4.664;2023-04-28T09:25:16;76204.63;;;-143.36;nan
39209;BME280;24929;51.982;4.664;2023-04-28T09:27:41;76220.66;;;-143.36;nan
39209;BME280;24929;51.982;4.664;2023-04-28T09:30:07;76188.56;;;-143.36;nan
39209;BME280;24929;51.982;4.664;2023-04-28T09:32:34;76168.50;;;-143.36;nan
39209;BME280;24929;51.982;4.664;2023-04-28T09:35:01;76134.38;;;-143.36;nan
39209;BME280;24929;51.982;4.664;2023-04-28T09:37:29;76136.41;;;-143.36;nan
39209;BME280;24929;51.982;4.664;2023-04-28T09:39:55;76148.44;;;-143.36;nan
39209;BME280;24929;51.982;4.664;2023-04-28T09:42:41;76110.31;;;-143.36;nan
39209;BME280;24929;51.982;4.664;2023-04-28T09:45:09;76132.38;;;-143.36;nan
39209;BME280;24929;51.982;4.664;2023-04-28T09:47:38;76094.25;;;-143.36;nan
39209;BME280;24929;51.982;4.664;2023-04-28T09:50:08;76096.25;;;-143.36;nan
39209;BME280;24929;51.982;4.664;2023-04-28T09:52:36;76128.38;;;-143.36;nan
39209;BME280;24929;51.982;4.664;2023-04-28T09:55:04;76054.13;;;-143.36;nan
39209;BME280;24929;51.982;4.664;2023-04-28T09:57:30;76074.19;;;-143.36;nan
39209;BME280;24929;51.982;4.664;2023-04-28T10:00:00;76074.19;;;-143.36;nan
39209;BME280;24929;51.982;4.664;2023-04-28T10:02:26;76080.22;;;-143.36;nan
39209;BME280;24929;51.982;4.664;2023-04-28T10:04:52;76020.03;;;-143.36;nan
39209;BME280;24929;51.982;4.664;2023-04-28T10:07:19;75989.91;;;-143.36;nan
39209;BME280;24929;51.982;4.664;2023-04-28T10:09:48;75981.91;;;-143.36;nan
39209;BME280;24929;51.982;4.664;2023-04-28T10:12:19;75973.88;;;-143.36;nan
39209;BME280;24929;51.982;4.664;2023-04-28T10:14:45;75999.94;;;-143.36;nan
39209;BME280;24929;51.982;4.664;2023-04-28T10:17:12;75983.91;;;-143.36;nan
39209;BME280;24929;51.982;4.664;2023-04-28T10:19:40;76030.06;;;-143.36;nan
39209;BME280;24929;51.982;4.664;2023-04-28T10:27:41;76072.19;;;-143.36;nan
39209;BME280;24929;51.982;4.664;2023-04-28T10:30:18;76058.13;;;-143.36;nan
39209;BME280;24929;51.982;4.664;2023-04-28T10:32:45;76104.28;;;-143.36;nan
39209;BME280;24929;51.982;4.664;2023-04-28T10:38:05;76016.00;;;-143.36;nan
39209;BME280;24929;51.982;4.664;2023-04-28T10:40:31;76144.41;;;-143.36;nan
39209;BME280;24929;51.982;4.664;2023-04-28T10:42:57;76154.44;;;-143.36;nan
39209;BME280;24929;51.982;4.664;2023-04-28T10:48:17;76112.31;;;-143.36;nan
39209;BME280;24929;51.982;4.664;2023-04-28T10:56:20;76172.50;;;-143.36;nan
39209;BME280;24929;51.982;4.664;2023-04-28T10:58:47;76204.63;;;-143.36;nan
39209;BME280;24929;51.982;4.664;2023-04-28T11:03:57;76182.53;;;-143.36;nan
39209;BME280;24929;51.982;4.664;2023-04-28T11:06:38;76184.56;;;-143.36;nan
39209;BME280;24929;51.982;4.664;2023-04-28T11:14:31;76192.56;;;-143.36;nan
39209;BME280;24929;51.982;4.664;2023-04-28T11:17:03;76238.72;;;-143.36;nan
39209;BME280;24929;51.982;4.664;2023-04-28T11:19:34;76162.47;;;-143.36;nan
39209;BME280;24929;51.982;4.664;2023-04-28T11:22:05;76140.41;;;-143.36;nan
39209;BME280;24929;51.982;4.664;2023-04-28T11:24:36;76182.53;;;-143.36;nan
39209;BME280;24929;51.982;4.664;2023-04-28T11:27:01;76176.53;;;-143.36;nan
39209;BME280;24929;51.982;4.664;2023-04-28T11:29:37;76132.38;;;-143.36;nan
39209;BME280;24929;51.982;4.664;2023-04-28T11:32:07;76156.47;;;-143.36;nan
39209;BME280;24929;51.982;4.664;2023-04-28T11:34:33;76182.53;;;-143.36;nan
39209;BME280;24929;51.982;4.664;2023-04-28T11:36:59;76162.47;;;-143.36;nan
39209;BME280;24929;51.982;4.664;2023-04-28T11:39:29;76158.47;;;-143.36;nan
39209;BME280;24929;51.982;4.664;2023-04-28T11:41:56;76138.41;;;-143.36;nan
39209;BME280;24929;51.982;4.664;2023-04-28T11:44:24;76114.31;;;-143.36;nan
39209;BME280;24929;51.982;4.664;2023-04-28T11:46:54;76100.28;;;-143.36;nan
39209;BME280;24929;51.982;4.664;2023-04-28T11:49:22;76100.28;;;-143.36;nan
39209;BME280;24929;51.982;4.664;2023-04-28T11:51:52;76100.28;;;-143.36;nan
39209;BME280;24929;51.982;4.664;2023-04-28T11:54:26;76050.13;;;-143.36;nan
39209;BME280;24929;51.982;4.664;2023-04-28T11:56:54;76040.09;;;-143.36;nan
39209;BME280;24929;51.982;4.664;2023-04-28T11:59:33;76064.16;;;-143.36;nan
39209;BME280;24929;51.982;4.664;2023-04-28T12:02:01;76070.19;;;-143.36;nan
39209;BME280;24929;51.982;4.664;2023-04-28T12:04:34;76056.13;;;-143.36;nan
39209;BME280;24929;51.982;4.664;2023-04-28T12:07:20;76007.97;;;-143.36;nan
39209;BME280;24929;51.982;4.664;2023-04-28T12:09:48;76056.13;;;-143.36;nan
39209;BME280;24929;51.982;4.664;2023-04-28T12:12:33;76084.22;;;-143.36;nan
39209;BME280;24929;51.982;4.664;2023-04-28T12:15:01;76040.09;;;-143.36;nan
39209;BME280;24929;51.982;4.664;2023-04-28T12:20:01;76020.03;;;-143.36;nan
39209;BME280;24929;51.982;4.664;2023-04-28T12:22:27;76056.13;;;-143.36;nan
39209;BME280;24929;51.982;4.664;2023-04-28T12:25:06;75993.94;;;-143.36;nan
39209;BME280;24929;51.982;4.664;2023-04-28T12:27:32;76076.19;;;-143.36;nan
39209;BME280;24929;51.982;4.664;2023-04-28T12:29:58;76068.19;;;-143.36;nan
39209;BME280;24929;51.982;4.664;2023-04-28T12:32:44;76012.00;;;-143.36;nan
39209;BME280;24929;51.982;4.664;2023-04-28T12:35:09;76062.16;;;-143.36;nan
39209;BME280;24929;51.982;4.664;2023-04-28T12:37:35;76054.13;;;-143.36;nan
39209;BME280;24929;51.982;4.664;2023-04-28T12:40:04;76034.06;;;-143.36;nan
39209;BME280;24929;51.982;4.664;2023-04-28T12:42:30;76066.16;;;-143.36;nan
39209;BME280;24929;51.982;4.664;2023-04-28T12:44:56;76080.22;;;-143.36;nan
39209;BME280;24929;51.982;4.664;2023-04-28T12:47:21;76090.25;;;-143.36;nan
39209;BME280;24929;51.982;4.664;2023-04-28T12:49:47;76140.41;;;-143.36;nan
39209;BME280;24929;51.982;4.664;2023-04-28T12:52:15;76136.41;;;-143.36;nan
39209;BME280;24929;51.982;4.664;2023-04-28T12:54:40;76114.31;;;-143.36;nan
39209;BME280;24929;51.982;4.664;2023-04-28T12:57:14;76134.38;;;-143.36;nan
39209;BME280;24929;51.982;4.664;2023-04-28T12:59:40;76144.41;;;-143.36;nan
39209;BME280;24929;51.982;4.664;2023-04-28T13:02:06;76148.44;;;-143.36;nan
39209;BME280;24929;51.982;4.664;2023-04-28T13:04:31;76182.53;;;-143.36;nan
39209;BME280;24929;51.982;4.664;2023-04-28T13:06:57;76138.41;;;-143.36;nan
39209;BME280;24929;51.982;4.664;2023-04-28T13:09:24;76088.25;;;-143.36;nan
39209;BME280;24929;51.982;4.664;2023-04-28T13:11:50;76122.34;;;-143.36;nan
39209;BME280;24929;51.982;4.664;2023-04-28T13:14:18;76168.50;;;-143.36;nan
39209;BME280;24929;51.982;4.664;2023-04-28T13:16:43;76194.59;;;-143.36;nan
39209;BME280;24929;51.982;4.664;2023-04-28T13:19:09;76282.88;;;-143.36;nan
39209;BME280;24929;51.982;4.664;2023-04-28T13:21:38;76196.59;;;-143.36;nan
39209;BME280;24929;51.982;4.664;2023-04-28T13:24:06;76164.50;;;-143.36;nan
39209;BME280;24929;51.982;4.664;2023-04-28T13:26:32;76160.47;;;-143.36;nan